createdAt,value
2019-05-20T00:02:24.486Z,8.37
2019-05-20T00:04:44.779Z,8.03
2019-05-20T00:07:15.103Z,7.83
2019-05-20T00:09:43.990Z,8.20
2019-05-20T00:12:32.157Z,8.50
2019-05-20T00:15:01.071Z,8.83
2019-05-20T00:17:39.497Z,8.07
2019-05-20T00:20:09.052Z,8.07
2019-05-20T00:22:38.017Z,8.60
2019-05-20T00:25:08.105Z,8.90
2019-05-20T00:27:38.278Z,8.77
2019-05-20T00:30:07.678Z,8.97
2019-05-20T00:32:41.522Z,9.23
2019-05-20T00:35:08.228Z,8.63
2019-05-20T00:37:39.421Z,8.73
2019-05-20T00:40:09.830Z,8.53
2019-05-20T00:42:39.508Z,8.90
2019-05-20T00:45:09.874Z,9.27
2019-05-20T00:47:46.059Z,8.93
2019-05-20T00:50:14.869Z,9.00
2019-05-20T00:52:47.185Z,9.40
2019-05-20T00:55:19.622Z,9.00
2019-05-20T00:57:49.756Z,9.00
2019-05-20T01:00:19.632Z,9.67
2019-05-20T01:02:56.474Z,9.33
2019-05-20T01:05:20.791Z,9.23
2019-05-20T01:07:49.507Z,9.03
2019-05-20T01:10:20.099Z,9.07
2019-05-20T01:12:48.832Z,9.43
2019-05-20T01:15:19.071Z,9.33
2019-05-20T01:17:47.879Z,9.13
2019-05-20T01:20:17.872Z,9.60
2019-05-20T01:22:48.372Z,8.83
2019-05-20T01:25:17.145Z,9.70
2019-05-20T01:27:47.267Z,9.73
2019-05-20T01:30:17.171Z,9.50
2019-05-20T01:32:46.921Z,9.30
2019-05-20T01:35:15.729Z,9.10
2019-05-20T01:37:44.370Z,9.47
2019-05-20T01:40:14.663Z,9.30
2019-05-20T01:42:43.348Z,10.50
2019-05-20T01:45:15.663Z,9.80
2019-05-20T01:47:44.910Z,10.70
2019-05-20T01:50:17.416Z,9.93
2019-05-20T01:52:46.146Z,9.90
2019-05-20T01:55:15.110Z,9.90
2019-05-20T01:57:43.934Z,9.50
2019-05-20T02:00:14.165Z,9.77
2019-05-20T02:02:43.447Z,9.43
2019-05-20T02:05:13.832Z,10.10
2019-05-20T02:07:43.655Z,8.83
2019-05-20T02:10:18.186Z,10.20
2019-05-20T02:12:48.971Z,10.23
2019-05-20T02:15:22.080Z,10.17
2019-05-20T02:17:51.022Z,9.40
2019-05-20T02:20:21.325Z,11.60
2019-05-20T02:22:50.640Z,11.17
2019-05-20T02:25:21.461Z,11.23
2019-05-20T02:27:51.638Z,10.57
2019-05-20T02:30:21.770Z,10.73
2019-05-20T02:32:50.404Z,8.10
2019-05-20T02:35:19.294Z,9.07
2019-05-20T02:37:50.800Z,11.47
2019-05-20T02:40:19.518Z,10.00
2019-05-20T02:42:48.932Z,11.50
2019-05-20T02:45:20.637Z,11.53
2019-05-20T02:47:51.553Z,11.47
2019-05-20T02:50:20.310Z,10.47
2019-05-20T02:52:48.949Z,9.70
2019-05-20T02:55:18.976Z,10.20
2019-05-20T02:57:48.851Z,12.77
2019-05-20T03:00:18.163Z,11.97
2019-05-20T03:02:49.984Z,10.83
2019-05-20T03:05:19.285Z,11.63
2019-05-20T03:07:49.110Z,12.20
2019-05-20T03:10:18.436Z,13.10
2019-05-20T03:12:49.031Z,11.33
2019-05-20T03:15:19.056Z,12.80
2019-05-20T03:17:50.776Z,12.67
2019-05-20T03:20:19.529Z,12.00
2019-05-20T03:22:51.527Z,12.40
2019-05-20T03:25:22.671Z,10.47
2019-05-20T03:27:52.790Z,9.33
2019-05-20T03:30:31.090Z,9.80
2019-05-20T03:33:01.294Z,10.17
2019-05-20T03:35:30.545Z,11.73
2019-05-20T03:38:01.784Z,11.73
2019-05-20T03:40:31.544Z,11.87
2019-05-20T03:43:05.443Z,13.23
2019-05-20T03:45:40.023Z,11.03
2019-05-20T03:48:12.775Z,11.17
2019-05-20T03:50:44.338Z,11.07
2019-05-20T03:53:17.000Z,12.17
2019-05-20T03:55:59.611Z,10.07
2019-05-20T03:58:20.043Z,9.73
2019-05-20T04:00:49.885Z,9.73
2019-05-20T04:03:19.772Z,9.87
2019-05-20T04:05:50.451Z,9.00
2019-05-20T04:08:19.549Z,9.23
2019-05-20T04:10:51.661Z,8.73
2019-05-20T04:13:20.485Z,8.30
2019-05-20T04:15:49.250Z,8.57
2019-05-20T04:18:23.166Z,8.80
2019-05-20T04:20:51.819Z,8.87
2019-05-20T04:23:21.041Z,8.53
2019-05-20T04:25:50.717Z,8.47
2019-05-20T04:28:19.424Z,7.97
2019-05-20T04:30:48.790Z,7.47
2019-05-20T04:33:17.742Z,8.17
2019-05-20T04:35:53.416Z,7.73
2019-05-20T04:38:23.244Z,7.13
2019-05-20T04:40:58.488Z,7.53
2019-05-20T04:43:28.962Z,7.87
2019-05-20T04:45:59.836Z,7.33
2019-05-20T04:48:28.656Z,7.80
2019-05-20T04:51:19.638Z,6.47
2019-05-20T04:53:52.871Z,6.63
2019-05-20T04:56:21.898Z,6.93
2019-05-20T04:58:51.054Z,7.10
2019-05-20T05:01:22.554Z,6.77
2019-05-20T05:03:54.587Z,6.43
2019-05-20T05:06:30.601Z,6.10
2019-05-20T05:09:00.688Z,6.60
2019-05-20T05:11:35.169Z,6.60
2019-05-20T05:14:04.227Z,6.43
2019-05-20T05:16:34.408Z,6.03
2019-05-20T05:19:03.124Z,6.30
2019-05-20T05:21:35.481Z,7.40
2019-05-20T05:24:04.662Z,6.50
2019-05-20T05:26:35.551Z,6.57
2019-05-20T05:29:04.750Z,6.17
2019-05-20T05:31:34.478Z,6.53
2019-05-20T05:34:04.758Z,6.47
2019-05-20T05:36:33.717Z,5.90
2019-05-20T05:39:05.908Z,6.23
2019-05-20T05:41:39.253Z,6.40
2019-05-20T05:44:08.133Z,6.03
2019-05-20T05:46:38.588Z,6.30
2019-05-20T05:49:07.394Z,8.00
2019-05-20T05:51:36.707Z,12.87
2019-05-20T05:54:08.424Z,11.10
2019-05-20T05:56:38.788Z,6.37
2019-05-20T05:59:07.958Z,5.90
2019-05-20T06:01:41.255Z,5.57
2019-05-20T06:04:15.119Z,5.80
2019-05-20T06:06:48.439Z,4.70
2019-05-20T06:09:23.608Z,5.73
2019-05-20T06:11:54.196Z,6.27
2019-05-20T06:14:27.029Z,5.63
2019-05-20T06:16:58.518Z,4.83
2019-05-20T06:19:31.295Z,5.63
2019-05-20T06:22:02.996Z,5.80
2019-05-20T06:24:32.806Z,5.30
2019-05-20T06:27:03.779Z,5.40
2019-05-20T06:29:35.627Z,5.43
2019-05-20T06:32:05.834Z,5.83
2019-05-20T06:34:42.111Z,5.73
2019-05-20T06:37:16.017Z,11.67
2019-05-20T06:39:51.234Z,15.63
2019-05-20T06:42:21.848Z,5.87
2019-05-20T06:44:57.180Z,5.33
2019-05-20T06:47:31.024Z,5.40
2019-05-20T06:50:04.850Z,4.83
2019-05-20T06:52:53.837Z,5.80
2019-05-20T06:55:28.724Z,5.15
2019-05-20T06:58:04.105Z,5.47
2019-05-20T07:00:38.189Z,5.50
2019-05-20T07:03:10.039Z,5.07
2019-05-20T07:05:40.646Z,5.73
2019-05-20T07:08:15.232Z,5.43
2019-05-20T07:10:47.783Z,5.10
2019-05-20T07:13:22.147Z,5.23
2019-05-20T07:15:59.197Z,5.50
2019-05-20T07:18:49.261Z,4.80
2019-05-20T07:21:21.180Z,4.97
2019-05-20T07:23:54.823Z,5.67
2019-05-20T07:26:34.375Z,5.50
2019-05-20T07:29:02.343Z,5.40
2019-05-20T07:31:32.598Z,6.80
2019-05-20T07:34:15.605Z,6.43
2019-05-20T07:36:44.567Z,9.07
2019-05-20T07:39:16.529Z,5.73
2019-05-20T07:41:50.719Z,5.40
2019-05-20T07:44:18.822Z,4.70
2019-05-20T07:46:52.543Z,4.97
2019-05-20T07:49:27.936Z,5.00
2019-05-20T07:52:02.704Z,5.08
2019-05-20T07:54:32.808Z,6.92
2019-05-20T07:57:08.012Z,55.80
2019-05-20T08:02:35.032Z,5.15
2019-05-20T08:05:12.295Z,5.50
2019-05-20T08:07:52.507Z,4.53
2019-05-20T08:10:20.105Z,5.08
2019-05-20T08:12:55.362Z,4.72
2019-05-20T08:15:25.079Z,5.42
2019-05-20T08:17:56.693Z,5.97
2019-05-20T08:20:31.479Z,4.87
2019-05-20T08:23:02.091Z,5.00
2019-05-20T08:25:31.906Z,5.40
2019-05-20T08:28:11.270Z,4.97
2019-05-20T08:30:44.284Z,4.92
2019-05-20T08:33:13.596Z,5.50
2019-05-20T08:38:33.322Z,6.50
2019-05-20T08:41:03.333Z,6.92
2019-05-20T08:43:33.015Z,21.50
2019-05-20T08:46:02.490Z,5.00
2019-05-20T08:48:32.960Z,5.60
2019-05-20T08:51:02.807Z,4.45
2019-05-20T08:53:34.542Z,5.40
2019-05-20T08:56:06.059Z,5.80
2019-05-20T08:58:36.123Z,4.87
2019-05-20T09:01:06.736Z,5.25
2019-05-20T09:03:39.207Z,18.40
2019-05-20T09:06:12.776Z,7.20
2019-05-20T09:08:43.812Z,4.97
2019-05-20T09:11:16.366Z,4.97
2019-05-20T09:13:50.495Z,5.03
2019-05-20T09:16:20.690Z,5.30
2019-05-20T09:19:01.182Z,5.30
2019-05-20T09:21:31.494Z,5.90
2019-05-20T09:24:01.978Z,12.37
2019-05-20T09:26:32.437Z,16.00
2019-05-20T09:29:01.394Z,6.40
2019-05-20T09:31:30.853Z,4.80
2019-05-20T09:34:03.911Z,4.83
2019-05-20T09:36:39.772Z,5.45
2019-05-20T09:39:07.804Z,4.92
2019-05-20T09:41:40.696Z,4.75
2019-05-20T09:44:12.708Z,5.00
2019-05-20T09:46:41.374Z,4.73
2019-05-20T09:49:12.898Z,4.83
2019-05-20T09:52:01.381Z,5.30
2019-05-20T09:54:30.979Z,5.00
2019-05-20T09:57:09.630Z,5.23
2019-05-20T09:59:43.409Z,5.40
2019-05-20T10:02:14.335Z,5.50
2019-05-20T10:04:45.888Z,4.90
2019-05-20T10:07:18.666Z,4.93
2019-05-20T10:09:47.597Z,5.33
2019-05-20T10:12:16.431Z,5.17
2019-05-20T10:14:48.251Z,5.47
2019-05-20T10:17:21.010Z,4.83
2019-05-20T10:19:52.281Z,4.60
2019-05-20T10:22:22.748Z,5.30
2019-05-20T10:24:54.868Z,5.37
2019-05-20T10:27:23.528Z,5.90
2019-05-20T10:30:12.908Z,6.97
2019-05-20T10:32:42.127Z,9.87
2019-05-20T10:35:59.461Z,8.70
2019-05-20T10:37:43.500Z,6.37
2019-05-20T10:40:17.085Z,6.33
2019-05-20T10:42:48.709Z,6.07
2019-05-20T10:45:22.281Z,5.87
2019-05-20T10:47:55.347Z,34.37
2019-05-20T10:50:25.670Z,6.20
2019-05-20T10:52:59.524Z,18.40
2019-05-20T10:58:21.479Z,5.90
2019-05-20T11:01:02.485Z,5.77
2019-05-20T11:03:28.797Z,5.70
2019-05-20T11:06:04.254Z,6.10
2019-05-20T11:08:37.429Z,6.43
2019-05-20T11:11:14.766Z,6.33
2019-05-20T11:13:43.065Z,6.40
2019-05-20T11:16:31.663Z,7.30
2019-05-20T11:18:53.034Z,6.40
2019-05-20T11:21:23.422Z,6.90
2019-05-20T11:23:52.778Z,7.43
2019-05-20T11:26:23.677Z,7.20
2019-05-20T11:29:00.938Z,8.30
2019-05-20T11:31:35.457Z,21.50
2019-05-20T11:34:07.910Z,7.37
2019-05-20T11:36:41.611Z,7.80
2019-05-20T11:39:11.720Z,10.87
2019-05-20T11:41:53.464Z,61.57
2019-05-20T11:44:18.604Z,10.70
2019-05-20T11:46:48.794Z,8.27
2019-05-20T11:49:18.224Z,9.17
2019-05-20T11:52:09.142Z,8.63
2019-05-20T11:54:47.367Z,10.43
2019-05-20T11:57:18.722Z,9.33
2019-05-20T11:59:59.925Z,11.07
2019-05-20T12:02:41.681Z,16.03
2019-05-20T12:05:22.810Z,51.07
2019-05-20T12:07:48.788Z,43.50
2019-05-20T12:10:18.500Z,11.83
2019-05-20T12:12:47.118Z,12.00
2019-05-20T12:15:20.860Z,13.43
2019-05-20T12:17:58.111Z,13.10
2019-05-20T12:20:28.690Z,13.63
2019-05-20T12:22:59.088Z,13.37
2019-05-20T12:25:29.058Z,13.83
2019-05-20T12:27:59.666Z,13.23
2019-05-20T12:30:28.500Z,14.03
2019-05-20T12:33:18.113Z,13.73
2019-05-20T12:35:36.127Z,14.00
2019-05-20T12:38:10.281Z,14.13
2019-05-20T12:40:47.776Z,13.63
2019-05-20T12:43:18.896Z,14.23
2019-05-20T12:45:47.789Z,14.93
2019-05-20T12:48:19.731Z,13.70
2019-05-20T12:50:48.451Z,15.33
2019-05-20T12:53:23.297Z,14.07
2019-05-20T12:55:51.728Z,14.33
2019-05-20T12:58:20.424Z,13.67
2019-05-20T13:00:50.643Z,13.70
2019-05-20T13:03:22.755Z,13.53
2019-05-20T13:05:52.062Z,14.70
2019-05-20T13:08:23.429Z,15.93
2019-05-20T13:10:57.047Z,14.10
2019-05-20T13:13:27.808Z,14.53
2019-05-20T13:15:59.199Z,14.83
2019-05-20T13:18:28.102Z,12.70
2019-05-20T13:20:56.954Z,13.90
2019-05-20T13:23:26.177Z,12.27
2019-05-20T13:25:56.578Z,12.87
2019-05-20T13:28:26.676Z,13.43
2019-05-20T13:30:56.376Z,13.80
2019-05-20T13:33:25.641Z,12.90
2019-05-20T13:35:55.069Z,12.47
2019-05-20T13:38:23.840Z,12.73
2019-05-20T13:40:54.713Z,11.47
2019-05-20T13:43:29.319Z,10.33
2019-05-20T13:45:59.025Z,10.80
2019-05-20T13:48:33.693Z,10.13
2019-05-20T13:51:03.624Z,9.67
2019-05-20T13:53:35.963Z,8.77
2019-05-20T13:56:12.594Z,8.90
2019-05-20T13:58:44.677Z,9.50
2019-05-20T14:01:15.500Z,9.50
2019-05-20T14:03:45.678Z,9.57
2019-05-20T14:06:14.723Z,10.37
2019-05-20T14:08:44.581Z,10.17
2019-05-20T14:11:17.816Z,9.30
2019-05-20T14:13:49.314Z,9.30
2019-05-20T14:16:25.665Z,9.27
2019-05-20T14:18:56.540Z,9.33
2019-05-20T14:21:27.913Z,7.83
2019-05-20T14:23:58.814Z,7.00
2019-05-20T14:26:29.176Z,6.00
2019-05-20T14:28:57.985Z,6.40
2019-05-20T14:31:30.141Z,6.43
2019-05-20T14:34:02.332Z,5.43
2019-05-20T14:36:39.204Z,5.37
2019-05-20T14:39:01.669Z,5.27
2019-05-20T14:41:35.713Z,5.30
2019-05-20T14:44:05.173Z,4.90
2019-05-20T14:46:35.325Z,5.10
2019-05-20T14:49:06.965Z,5.27
2019-05-20T14:51:36.738Z,5.07
2019-05-20T14:54:06.745Z,5.00
2019-05-20T14:56:38.572Z,5.40
2019-05-20T14:59:17.734Z,5.07
2019-05-20T15:01:49.215Z,4.90
2019-05-20T15:04:20.050Z,5.53
2019-05-20T15:06:52.030Z,5.30
2019-05-20T15:09:27.458Z,5.73
2019-05-20T15:12:01.050Z,6.03
2019-05-20T15:14:30.027Z,5.87
2019-05-20T15:17:08.430Z,6.00
2019-05-20T15:19:37.334Z,5.80
2019-05-20T15:22:08.723Z,5.30
2019-05-20T15:24:37.566Z,5.23
2019-05-20T15:27:10.074Z,5.50
2019-05-20T15:29:39.471Z,5.70
2019-05-20T15:32:15.542Z,5.70
2019-05-20T15:34:45.641Z,5.83
2019-05-20T15:37:15.358Z,5.80
2019-05-20T15:39:46.545Z,6.20
2019-05-20T15:42:17.737Z,6.70
2019-05-20T15:44:50.533Z,6.70
2019-05-20T15:47:19.307Z,5.93
2019-05-20T15:49:48.766Z,6.73
2019-05-20T15:52:19.051Z,6.50
2019-05-20T15:54:49.397Z,7.03
2019-05-20T15:57:23.053Z,6.87
2019-05-20T15:59:56.990Z,6.20
2019-05-20T16:02:25.516Z,6.67
2019-05-20T16:04:57.110Z,6.13
2019-05-20T16:07:25.843Z,6.40
2019-05-20T16:09:54.904Z,6.17
2019-05-20T16:12:26.400Z,6.30
2019-05-20T16:14:56.162Z,6.97
2019-05-20T16:17:25.905Z,7.03
2019-05-20T16:19:54.721Z,7.67
2019-05-20T16:22:25.110Z,7.33
2019-05-20T16:24:54.970Z,8.20
2019-05-20T16:27:25.640Z,8.20
2019-05-20T16:30:05.918Z,7.63
2019-05-20T16:32:27.593Z,8.00
2019-05-20T16:34:56.473Z,9.13
2019-05-20T16:37:27.089Z,8.53
2019-05-20T16:39:59.700Z,9.07
2019-05-20T16:42:29.279Z,9.03
2019-05-20T16:45:01.666Z,9.40
2019-05-20T16:47:38.070Z,9.07
2019-05-20T16:50:13.290Z,8.43
2019-05-20T16:52:44.265Z,9.50
2019-05-20T16:55:16.472Z,9.37
2019-05-20T16:57:45.103Z,11.13
2019-05-20T17:00:30.953Z,10.53
2019-05-20T17:02:47.328Z,10.43
2019-05-20T17:05:16.701Z,10.23
2019-05-20T17:07:48.333Z,11.40
2019-05-20T17:13:09.987Z,11.30
2019-05-20T17:15:40.779Z,11.93
2019-05-20T17:18:09.630Z,12.97
2019-05-20T17:20:38.561Z,11.80
2019-05-20T17:23:07.305Z,13.03
2019-05-20T17:25:37.985Z,12.40
2019-05-20T17:28:08.396Z,13.93
2019-05-20T17:30:45.359Z,14.30
2019-05-20T17:33:08.366Z,12.77
2019-05-20T17:35:39.321Z,13.20
2019-05-20T17:38:10.204Z,13.63
2019-05-20T17:40:41.245Z,12.77
2019-05-20T17:43:13.821Z,12.60
2019-05-20T17:45:43.241Z,12.70
2019-05-20T17:48:13.063Z,12.57
2019-05-20T17:50:43.770Z,14.60
2019-05-20T17:53:20.328Z,13.70
2019-05-20T17:55:50.024Z,14.80
2019-05-20T17:58:20.313Z,14.57
2019-05-20T18:00:49.900Z,14.70
2019-05-20T18:03:21.973Z,14.90
2019-05-20T18:05:52.256Z,14.27
2019-05-20T18:08:24.966Z,14.60
2019-05-20T18:10:56.011Z,14.93
2019-05-20T18:13:24.755Z,15.70
2019-05-20T18:15:54.421Z,15.40
2019-05-20T18:18:25.112Z,15.10
2019-05-20T18:20:58.802Z,13.47
2019-05-20T18:23:28.314Z,13.43
2019-05-20T18:25:57.103Z,15.10
2019-05-20T18:28:29.259Z,15.20
2019-05-20T18:30:58.179Z,15.93
2019-05-20T18:33:28.865Z,15.57
2019-05-20T18:35:58.242Z,14.03
2019-05-20T18:38:28.238Z,14.43
2019-05-20T18:40:58.274Z,14.20
2019-05-20T18:43:31.552Z,15.53
2019-05-20T18:46:03.419Z,15.97
2019-05-20T18:48:33.570Z,14.87
2019-05-20T18:51:02.223Z,17.60
2019-05-20T18:53:32.196Z,19.23
2019-05-20T18:56:02.889Z,19.80
2019-05-20T18:58:38.663Z,18.43
2019-05-20T19:01:14.375Z,20.40
2019-05-20T19:03:46.990Z,22.17
2019-05-20T19:06:17.279Z,29.97
2019-05-20T19:08:48.905Z,26.33
2019-05-20T19:14:08.690Z,19.10
2019-05-20T19:16:38.692Z,18.83
2019-05-20T19:19:08.790Z,17.77
2019-05-20T19:21:42.767Z,16.43
2019-05-20T19:24:20.320Z,18.23
2019-05-20T19:26:49.900Z,17.83
2019-05-20T19:29:21.928Z,16.77
2019-05-20T19:32:01.384Z,17.43
2019-05-20T19:34:26.096Z,17.60
2019-05-20T19:37:02.156Z,18.20
2019-05-20T19:39:30.963Z,17.67
2019-05-20T19:42:03.944Z,18.03
2019-05-20T19:44:35.040Z,18.70
2019-05-20T19:47:05.358Z,20.20
2019-05-20T19:49:42.491Z,19.50
2019-05-20T19:52:14.219Z,20.40
2019-05-20T19:54:44.469Z,21.13
2019-05-20T19:57:21.726Z,20.70
2019-05-20T19:59:52.327Z,21.77
2019-05-20T20:02:26.966Z,21.23
2019-05-20T20:05:00.932Z,20.33
2019-05-20T20:07:31.240Z,20.03
2019-05-20T20:10:17.293Z,20.87
2019-05-20T20:12:58.048Z,20.63
2019-05-20T20:15:31.603Z,20.60
2019-05-20T20:18:04.913Z,19.83
2019-05-20T20:20:37.999Z,19.70
2019-05-20T20:23:11.140Z,20.90
2019-05-20T20:25:44.180Z,20.03
2019-05-20T20:28:16.611Z,20.13
2019-05-20T20:30:56.758Z,19.47
2019-05-20T20:33:27.647Z,19.83
2019-05-20T20:36:05.274Z,20.20
2019-05-20T20:38:36.286Z,21.57
2019-05-20T20:41:05.227Z,21.37
2019-05-20T20:43:41.419Z,20.93
2019-05-20T20:46:12.170Z,21.30
2019-05-20T20:48:43.799Z,21.67
2019-05-20T20:51:24.012Z,21.53
2019-05-20T20:53:54.195Z,21.20
2019-05-20T20:56:25.601Z,21.40
2019-05-20T20:59:05.488Z,21.13
2019-05-20T21:04:35.535Z,22.43
2019-05-20T21:07:08.762Z,21.40
2019-05-20T21:09:43.524Z,20.40
2019-05-20T21:12:19.579Z,20.17
2019-05-20T21:14:54.148Z,20.70
2019-05-20T21:17:31.821Z,19.87
2019-05-20T21:22:56.086Z,19.20
2019-05-20T21:25:32.768Z,20.57
2019-05-20T21:28:09.951Z,19.47
2019-05-20T21:30:51.590Z,19.90
2019-05-20T21:33:22.729Z,20.47
2019-05-20T21:35:53.996Z,19.57
2019-05-20T21:38:27.553Z,20.07
2019-05-20T21:41:04.009Z,20.80
2019-05-20T21:43:40.254Z,21.00
2019-05-20T21:46:13.542Z,21.17
2019-05-20T21:48:52.364Z,20.07
2019-05-20T21:51:27.036Z,19.37
2019-05-20T21:54:02.511Z,19.33
2019-05-20T21:59:28.227Z,20.83
2019-05-20T22:02:03.458Z,19.23
2019-05-20T22:04:33.689Z,19.13
2019-05-20T22:07:07.077Z,18.87
2019-05-20T22:09:43.036Z,19.67
2019-05-20T22:12:14.244Z,18.63
2019-05-20T22:14:44.835Z,19.37
2019-05-20T22:17:17.700Z,20.53
2019-05-20T22:20:00.810Z,19.77
2019-05-20T22:22:43.309Z,19.43
2019-05-20T22:25:15.672Z,19.67
2019-05-20T22:27:47.133Z,20.43
2019-05-20T22:30:18.714Z,18.77
2019-05-20T22:32:50.062Z,18.47
2019-05-20T22:38:15.308Z,18.67
2019-05-20T22:40:50.636Z,17.73
2019-05-20T22:43:27.614Z,16.90
2019-05-20T22:46:05.476Z,17.07
2019-05-20T22:51:28.282Z,17.00
2019-05-20T22:54:07.160Z,17.60
2019-05-20T22:56:38.111Z,16.30
2019-05-20T22:59:16.449Z,15.63
2019-05-20T23:01:54.085Z,16.13
2019-05-20T23:04:25.438Z,13.40
2019-05-20T23:07:05.258Z,14.40
2019-05-20T23:09:36.699Z,13.93
2019-05-20T23:12:08.961Z,14.30
2019-05-20T23:14:42.216Z,14.27
2019-05-20T23:17:12.276Z,13.60
2019-05-20T23:19:45.881Z,12.37
2019-05-20T23:22:19.762Z,13.37
2019-05-20T23:24:54.347Z,12.40
2019-05-20T23:27:28.233Z,12.80
2019-05-20T23:30:05.995Z,12.63
2019-05-20T23:32:37.343Z,13.30
2019-05-20T23:35:19.686Z,13.53
2019-05-20T23:37:59.309Z,12.80
2019-05-20T23:40:32.877Z,11.70
2019-05-20T23:43:06.450Z,11.67
2019-05-20T23:45:38.100Z,11.67
2019-05-20T23:48:09.270Z,11.30
2019-05-20T23:50:43.546Z,11.77
2019-05-20T23:53:13.084Z,11.73
2019-05-20T23:55:48.349Z,11.60
